Canadian's Hourly Summary for Friday, March 17, 2017
Hour Temp
(f)
RH
(%)
Solar Rad.
(MJ/m2)
Rainfall
(in)
Wind
(mph)
3/17/2017 12:00 AM 61 47 0 0 0.62
3/17/2017 1:00 AM 61 49 0 0 1.61
3/17/2017 2:00 AM 58 52 0 0 0.13
3/17/2017 3:00 AM 53 65 0 0 0.13
3/17/2017 4:00 AM 50 67 0 0 0.8
3/17/2017 5:00 AM 47 70 0 0 1.8
3/17/2017 6:00 AM 43 67 0 0 3.14
3/17/2017 7:00 AM 43 51 0 0 2.52
3/17/2017 8:00 AM 48 42 0.01 0 5.04
3/17/2017 9:00 AM 54 39 0.29 0 4.86
3/17/2017 10:00 AM 58 37 0.99 0 10.55
3/17/2017 11:00 AM 63 33 1.68 0 13.5
3/17/2017 12:00 PM 65 30 1.82 0 12.64
3/17/2017 1:00 PM 68 26 1.55 0 11.75
3/17/2017 2:00 PM 73 21 2.65 0 13.58
3/17/2017 3:00 PM 76 19 2.82 0 13.71
3/17/2017 4:00 PM 76 19 1.28 0 11.32
3/17/2017 5:00 PM 76 19 1.08 0 10.23
3/17/2017 6:00 PM 76 19 0.85 0 8.32
3/17/2017 7:00 PM 74 20 0.4 0 8.18
3/17/2017 8:00 PM 71 22 0.1 0 5.03
3/17/2017 9:00 PM 63 26 0 0 2.3
3/17/2017 10:00 PM 57 37 0 0 1.12
3/17/2017 11:00 PM 54 45 0 0 0.89
Data Summary 61 38 15.52 0.00 5.99